Time;durP1;ratioP1;P1;durP2;ratioP2;P2;SDS_P1;SDS_P2;PMS_P1;PMS_P2;Temp;Humidity;BMP_temperature;BMP_pressure;BME280_temperature;BME280_humidity;BME280_pressure;Samples;Min_cycle;Max_cycle;Signal;HPM_P1;HPM_P2
2023/04/21 00:00:51;;;;;;;19.20;15.32;;;8.50;99.90;;;;;;5036502;28;20218;-62
2023/04/21 00:03:21;;;;;;;21.70;15.35;;;8.50;99.90;;;;;;5036377;28;20202;-61
2023/04/21 00:05:48;;;;;;;22.33;16.65;;;8.40;99.90;;;;;;5036130;28;20194;-64
2023/04/21 00:08:15;;;;;;;19.88;16.05;;;8.50;99.90;;;;;;5035601;28;20691;-61
2023/04/21 00:10:42;;;;;;;17.20;15.25;;;8.50;99.90;;;;;;5035882;28;20324;-61
2023/04/21 00:13:10;;;;;;;22.35;15.07;;;8.50;99.90;;;;;;5036001;28;20206;-63
2023/04/21 00:15:37;;;;;;;20.13;15.98;;;8.50;99.90;;;;;;5036065;28;20298;-61
2023/04/21 00:18:05;;;;;;;19.85;15.23;;;8.50;99.90;;;;;;5035407;28;20203;-61
2023/04/21 00:20:32;;;;;;;21.40;15.25;;;8.60;99.90;;;;;;5034988;28;20222;-61
2023/04/21 00:22:59;;;;;;;16.73;15.02;;;8.50;99.90;;;;;;5034438;28;20208;-61
2023/04/21 00:25:26;;;;;;;17.83;14.45;;;8.60;99.90;;;;;;5034480;28;20281;-61
2023/04/21 00:27:53;;;;;;;19.20;15.02;;;8.60;99.90;;;;;;5037222;28;20194;-61
2023/04/21 00:30:22;;;;;;;19.88;14.85;;;8.60;99.90;;;;;;5038057;28;20224;-61
2023/04/21 00:32:49;;;;;;;17.60;14.25;;;8.60;99.90;;;;;;5037951;28;20206;-60
2023/04/21 00:35:15;;;;;;;20.65;14.52;;;8.60;99.90;;;;;;5038506;28;20206;-60
2023/04/21 00:37:43;;;;;;;18.38;14.75;;;8.60;99.90;;;;;;5038280;28;20229;-61
2023/04/21 00:40:10;;;;;;;20.58;14.00;;;8.60;99.90;;;;;;5038658;28;20233;-61
2023/04/21 00:42:37;;;;;;;18.33;14.45;;;8.50;99.90;;;;;;5038885;28;20233;-60
2023/04/21 00:45:05;;;;;;;19.83;15.13;;;8.50;99.90;;;;;;5038534;28;20198;-61
2023/04/21 00:47:33;;;;;;;18.95;14.15;;;8.50;99.90;;;;;;5039617;28;20206;-60
2023/04/21 00:50:00;;;;;;;20.67;14.65;;;8.50;99.90;;;;;;5039518;28;20229;-61
2023/04/21 00:52:27;;;;;;;20.20;12.93;;;8.50;99.90;;;;;;5038097;28;20233;-61
2023/04/21 00:54:55;;;;;;;22.80;13.68;;;8.50;99.90;;;;;;5037224;28;20206;-61
2023/04/21 00:57:22;;;;;;;19.27;15.07;;;8.50;99.90;;;;;;5037535;28;20722;-61
2023/04/21 00:59:50;;;;;;;17.23;12.73;;;8.40;99.90;;;;;;5037883;28;20313;-61
2023/04/21 01:02:17;;;;;;;18.10;13.30;;;8.40;99.90;;;;;;5040235;28;20209;-61
2023/04/21 01:04:46;;;;;;;18.60;14.38;;;8.40;99.90;;;;;;5042007;28;20203;-61
2023/04/21 01:07:13;;;;;;;18.48;14.10;;;8.50;99.90;;;;;;5038729;28;20202;-61
2023/04/21 01:09:40;;;;;;;20.05;13.38;;;8.50;99.90;;;;;;5038182;28;20253;-60
2023/04/21 01:12:08;;;;;;;16.00;12.82;;;8.50;99.90;;;;;;5037603;28;20273;-61
2023/04/21 01:14:36;;;;;;;18.30;12.45;;;8.40;99.90;;;;;;5037475;28;20209;-61
2023/04/21 01:17:04;;;;;;;20.95;13.35;;;8.40;99.90;;;;;;5037589;28;20222;-62
2023/04/21 01:19:34;;;;;;;14.55;12.68;;;8.40;99.90;;;;;;5036960;28;20335;-62
2023/04/21 01:22:03;;;;;;;14.50;13.00;;;8.40;99.90;;;;;;5036991;28;20276;-61
2023/04/21 01:24:37;;;;;;;14.60;12.75;;;8.40;99.90;;;;;;5037374;28;20217;-61
2023/04/21 01:27:04;;;;;;;19.27;13.07;;;8.40;99.90;;;;;;5037168;28;20256;-61
2023/04/21 01:29:33;;;;;;;15.13;12.30;;;8.40;99.90;;;;;;5037424;28;20319;-60
2023/04/21 01:32:05;;;;;;;13.73;11.60;;;8.30;99.90;;;;;;5037033;28;20206;-60
2023/04/21 01:34:32;;;;;;;15.13;12.52;;;8.30;99.90;;;;;;5037457;28;20182;-60
2023/04/21 01:36:59;;;;;;;16.38;12.95;;;8.40;99.90;;;;;;5038269;28;20226;-62
2023/04/21 01:39:27;;;;;;;17.10;12.20;;;8.30;99.90;;;;;;5036409;28;20217;-62
2023/04/21 01:41:56;;;;;;;14.70;12.40;;;8.30;99.90;;;;;;5038211;28;20598;-62
2023/04/21 01:44:23;;;;;;;14.50;12.10;;;8.30;99.90;;;;;;5038618;28;20694;-61
2023/04/21 01:46:50;;;;;;;15.18;11.60;;;8.30;99.90;;;;;;5039383;28;20577;-61
2023/04/21 01:49:17;;;;;;;14.63;12.90;;;8.30;99.90;;;;;;5038740;28;20256;-61
2023/04/21 01:51:44;;;;;;;18.08;11.70;;;8.30;99.90;;;;;;5037810;28;20525;-60
2023/04/21 01:54:11;;;;;;;14.55;11.80;;;8.20;99.90;;;;;;5037229;28;20602;-61
2023/04/21 01:56:39;;;;;;;12.93;11.52;;;8.20;99.90;;;;;;5037365;28;20317;-61
2023/04/21 01:59:06;;;;;;;15.75;11.20;;;8.20;99.90;;;;;;5036710;28;20709;-61
2023/04/21 02:01:34;;;;;;;14.73;11.80;;;8.20;99.90;;;;;;5036906;28;20278;-59
2023/04/21 02:04:01;;;;;;;13.13;11.73;;;8.20;99.90;;;;;;5036444;28;20234;-62
2023/04/21 02:06:28;;;;;;;16.25;11.50;;;8.20;99.90;;;;;;5037576;28;20198;-62
2023/04/21 02:08:55;;;;;;;16.63;11.60;;;8.20;99.90;;;;;;5037334;28;20301;-62
2023/04/21 02:11:23;;;;;;;12.57;11.15;;;8.20;99.90;;;;;;5038236;28;20210;-61
2023/04/21 02:13:52;;;;;;;16.13;11.50;;;8.10;99.90;;;;;;5036887;28;20270;-61
2023/04/21 02:16:19;;;;;;;15.95;11.77;;;8.10;99.90;;;;;;5038796;28;20289;-61
2023/04/21 02:18:47;;;;;;;13.20;11.88;;;8.10;99.90;;;;;;5038759;28;20252;-62
2023/04/21 02:21:14;;;;;;;16.90;11.27;;;8.10;99.90;;;;;;5040094;28;20222;-62
2023/04/21 02:23:41;;;;;;;14.23;11.05;;;8.10;99.90;;;;;;5039764;28;20245;-61
2023/04/21 02:26:08;;;;;;;13.68;11.73;;;8.10;99.90;;;;;;5041777;28;20256;-61
2023/04/21 02:28:34;;;;;;;11.43;10.23;;;8.00;99.90;;;;;;5042842;28;20199;-61
2023/04/21 02:31:03;;;;;;;13.85;11.60;;;8.00;99.90;;;;;;5045071;28;20222;-62
2023/04/21 02:33:30;;;;;;;13.45;11.38;;;8.00;99.90;;;;;;5042060;28;20233;-60
2023/04/21 02:35:56;;;;;;;15.50;10.30;;;8.00;99.90;;;;;;5039048;28;20206;-62
2023/04/21 02:38:23;;;;;;;15.65;11.93;;;8.00;99.90;;;;;;5037694;28;20232;-61
2023/04/21 02:40:50;;;;;;;16.40;11.70;;;8.00;99.90;;;;;;5037158;28;20259;-60
2023/04/21 02:43:17;;;;;;;16.70;14.05;;;8.00;99.90;;;;;;5038461;28;20255;-61
2023/04/21 02:45:44;;;;;;;15.13;11.60;;;7.90;99.90;;;;;;5043389;28;20198;-61
2023/04/21 02:48:13;;;;;;;15.00;12.00;;;8.00;99.90;;;;;;5047544;28;20233;-59
2023/04/21 02:50:40;;;;;;;20.35;12.05;;;8.00;99.90;;;;;;5047646;28;20299;-60
2023/04/21 02:53:07;;;;;;;15.65;13.00;;;8.00;99.90;;;;;;5051257;28;20202;-61
2023/04/21 02:55:34;;;;;;;19.63;11.70;;;8.10;99.90;;;;;;5049498;28;20202;-61
2023/04/21 02:58:01;;;;;;;15.63;11.45;;;8.10;99.90;;;;;;5050461;28;20218;-60
2023/04/21 03:00:28;;;;;;;16.73;11.77;;;8.10;99.90;;;;;;5051936;28;20228;-62
2023/04/21 03:02:55;;;;;;;15.73;11.18;;;8.10;99.90;;;;;;5048458;28;20584;-61
2023/04/21 03:05:23;;;;;;;14.15;10.23;;;8.10;99.90;;;;;;5043858;28;20202;-60
2023/04/21 03:07:50;;;;;;;14.98;11.10;;;8.10;99.90;;;;;;5045563;28;20208;-61
2023/04/21 03:10:18;;;;;;;13.82;10.75;;;8.10;99.90;;;;;;5043962;28;20234;-61
2023/04/21 03:12:45;;;;;;;16.05;11.45;;;8.10;99.90;;;;;;5046691;28;20559;-61
2023/04/21 03:15:13;;;;;;;12.40;11.20;;;8.10;99.90;;;;;;5046198;28;20275;-61
2023/04/21 03:17:40;;;;;;;23.33;12.05;;;8.10;99.90;;;;;;5044412;28;20222;-62
2023/04/21 03:20:07;;;;;;;14.00;11.23;;;8.00;99.90;;;;;;5044461;28;20313;-60
2023/04/21 03:22:36;;;;;;;13.43;10.60;;;8.00;99.90;;;;;;5043931;28;20210;-61
2023/04/21 03:25:03;;;;;;;14.95;11.07;;;8.00;99.90;;;;;;5052366;28;20213;-61
2023/04/21 03:27:31;;;;;;;13.40;10.70;;;8.00;99.90;;;;;;5049328;28;20202;-61
2023/04/21 03:29:57;;;;;;;17.73;11.48;;;8.00;99.90;;;;;;5048501;28;20207;-61
2023/04/21 03:32:24;;;;;;;16.58;12.10;;;8.00;99.90;;;;;;5041706;28;20581;-61
2023/04/21 03:34:51;;;;;;;15.95;11.27;;;7.90;99.90;;;;;;5036027;28;20202;-62
2023/04/21 03:37:18;;;;;;;13.30;10.48;;;7.90;99.90;;;;;;5035198;28;20218;-61
2023/04/21 03:39:46;;;;;;;13.32;10.80;;;7.90;99.90;;;;;;5037022;28;20222;-61
2023/04/21 03:42:13;;;;;;;11.68;10.43;;;7.90;99.90;;;;;;5038144;28;20206;-62
2023/04/21 03:44:39;;;;;;;15.10;10.40;;;7.90;99.90;;;;;;5037245;28;20199;-61
2023/04/21 03:47:06;;;;;;;16.00;10.82;;;7.90;99.90;;;;;;5036654;28;20201;-61
2023/04/21 03:49:34;;;;;;;15.82;11.15;;;7.90;99.90;;;;;;5035429;28;20318;-61
2023/04/21 03:52:01;;;;;;;12.80;10.95;;;7.90;99.90;;;;;;5034698;28;20206;-60
2023/04/21 03:54:28;;;;;;;19.08;10.88;;;7.90;99.90;;;;;;5034656;28;20281;-61
2023/04/21 03:56:56;;;;;;;14.13;11.32;;;7.90;99.90;;;;;;5035505;28;20213;-61
2023/04/21 03:59:23;;;;;;;13.98;12.13;;;7.90;99.90;;;;;;5035409;28;20228;-61
2023/04/21 04:01:49;;;;;;;15.27;11.10;;;7.90;99.90;;;;;;5034691;28;20206;-61
2023/04/21 04:04:16;;;;;;;18.83;11.90;;;7.90;99.90;;;;;;5036811;28;20210;-60
2023/04/21 04:06:43;;;;;;;11.38;10.18;;;8.00;99.90;;;;;;5037101;28;20202;-61
2023/04/21 04:11:37;;;;;;;13.57;10.68;;;8.00;99.90;;;;;;5092668;28;20561;-61
2023/04/21 04:14:04;;;;;;;15.68;10.75;;;8.00;99.90;;;;;;5092825;28;20210;-60
2023/04/21 04:16:30;;;;;;;17.35;11.43;;;8.00;99.90;;;;;;5093046;28;20200;-62
2023/04/21 04:18:57;;;;;;;12.77;11.45;;;8.00;99.90;;;;;;5092475;28;20226;-61
2023/04/21 04:21:24;;;;;;;14.63;11.23;;;8.00;99.90;;;;;;5092040;28;20280;-61
2023/04/21 04:23:52;;;;;;;13.82;10.63;;;8.00;99.90;;;;;;5092103;28;20295;-61
2023/04/21 04:26:19;;;;;;;15.30;11.25;;;8.00;99.90;;;;;;5091419;28;20576;-61
2023/04/21 04:28:47;;;;;;;13.95;11.48;;;8.00;99.90;;;;;;5091491;28;20632;-61
2023/04/21 04:31:14;;;;;;;16.48;12.73;;;8.10;99.90;;;;;;5091734;28;20224;-61
2023/04/21 04:33:42;;;;;;;13.07;11.32;;;8.10;99.90;;;;;;5091793;28;20201;-60
2023/04/21 04:36:09;;;;;;;13.88;11.60;;;8.20;99.90;;;;;;5091989;28;20234;-62
2023/04/21 04:38:36;;;;;;;11.00;9.38;;;8.30;99.90;;;;;;5091051;28;20576;-61
2023/04/21 04:41:03;;;;;;;10.75;9.40;;;8.30;99.90;;;;;;5093591;28;20224;-60
2023/04/21 04:43:32;;;;;;;19.40;9.80;;;8.40;99.90;;;;;;5093270;28;20212;-61
2023/04/21 04:46:00;;;;;;;11.30;10.00;;;8.50;99.90;;;;;;5092227;28;20200;-61
2023/04/21 04:48:27;;;;;;;14.68;10.45;;;8.60;99.90;;;;;;5092356;28;20582;-59
2023/04/21 04:50:54;;;;;;;14.52;9.77;;;8.70;99.90;;;;;;5092568;28;20235;-62
2023/04/21 04:53:20;;;;;;;10.45;9.35;;;8.80;99.90;;;;;;5091893;28;20203;-62
2023/04/21 04:55:47;;;;;;;13.85;9.95;;;8.80;99.90;;;;;;5093684;28;20200;-61
2023/04/21 04:58:14;;;;;;;10.40;9.20;;;8.90;99.90;;;;;;5092866;28;20223;-61
2023/04/21 05:00:41;;;;;;;14.93;10.35;;;9.00;99.90;;;;;;5091986;28;20312;-62
2023/04/21 05:03:09;;;;;;;16.00;9.93;;;9.10;99.90;;;;;;5091578;28;20228;-60
2023/04/21 05:05:36;;;;;;;12.23;8.60;;;9.20;99.90;;;;;;5090930;28;20227;-61
2023/04/21 05:08:03;;;;;;;15.07;8.80;;;9.20;99.90;;;;;;5090844;28;20212;-61
2023/04/21 05:10:30;;;;;;;11.88;9.45;;;9.30;99.90;;;;;;5091035;28;20651;-62
2023/04/21 05:12:57;;;;;;;15.07;9.43;;;9.30;99.90;;;;;;5075838;22;20236;-65
2023/04/21 05:15:24;;;;;;;11.25;9.40;;;9.30;99.90;;;;;;5049113;28;20767;-63
2023/04/21 05:17:50;;;;;;;13.30;10.00;;;9.40;99.90;;;;;;5049442;28;20260;-64
2023/04/21 05:20:19;;;;;;;13.43;9.10;;;9.50;99.90;;;;;;5049320;28;20519;-64
2023/04/21 05:22:45;;;;;;;13.27;8.87;;;9.50;99.90;;;;;;5037415;28;20219;-63
2023/04/21 05:25:14;;;;;;;16.43;9.07;;;9.60;99.90;;;;;;5036149;28;20453;-64
2023/04/21 05:27:41;;;;;;;11.40;8.70;;;9.60;99.90;;;;;;5036579;28;20448;-64
2023/04/21 05:30:08;;;;;;;13.55;9.30;;;9.50;99.90;;;;;;5035918;28;20476;-64
2023/04/21 05:32:36;;;;;;;15.18;9.35;;;9.50;99.90;;;;;;5035379;28;20226;-64
2023/04/21 05:35:03;;;;;;;14.53;10.10;;;9.50;99.90;;;;;;5035983;28;20209;-64
2023/04/21 05:37:31;;;;;;;13.52;9.90;;;9.50;99.90;;;;;;5036175;28;20457;-65
2023/04/21 05:39:58;;;;;;;10.45;8.60;;;9.40;99.90;;;;;;5035693;28;20290;-65
2023/04/21 05:42:25;;;;;;;13.68;9.80;;;9.50;99.90;;;;;;5035262;28;20715;-65
2023/04/21 05:44:53;;;;;;;11.38;9.15;;;9.50;99.90;;;;;;5035519;28;20203;-65
2023/04/21 05:47:19;;;;;;;9.80;8.80;;;9.50;99.90;;;;;;5035970;28;20272;-63
2023/04/21 05:49:48;;;;;;;13.70;8.85;;;9.60;99.90;;;;;;5035281;28;20202;-63
2023/04/21 05:52:16;;;;;;;10.63;9.60;;;9.70;99.90;;;;;;5035292;28;20233;-64
2023/04/21 05:54:44;;;;;;;15.85;10.15;;;9.70;99.90;;;;;;5035494;28;20198;-64
2023/04/21 05:57:11;;;;;;;11.15;8.95;;;9.80;99.90;;;;;;5035507;28;20202;-65
2023/04/21 05:59:38;;;;;;;10.53;9.03;;;9.80;99.90;;;;;;5035112;28;20573;-64
2023/04/21 06:02:05;;;;;;;12.15;9.02;;;9.90;99.90;;;;;;5035333;28;20460;-65
2023/04/21 06:04:32;;;;;;;13.43;10.07;;;10.00;99.90;;;;;;5034974;28;20305;-64
2023/04/21 06:07:04;;;;;;;13.32;9.45;;;10.10;99.90;;;;;;5035396;28;20456;-64
2023/04/21 06:09:31;;;;;;;12.30;9.50;;;10.10;99.90;;;;;;5036119;28;20289;-64
2023/04/21 06:11:59;;;;;;;13.30;9.40;;;10.10;99.90;;;;;;5035770;28;20542;-64
2023/04/21 06:14:26;;;;;;;16.90;9.10;;;10.20;99.90;;;;;;5035339;28;20457;-64
2023/04/21 06:16:53;;;;;;;12.30;8.93;;;10.20;99.90;;;;;;5036140;28;20664;-64
2023/04/21 06:19:20;;;;;;;14.25;8.90;;;10.30;99.90;;;;;;5035318;28;20684;-66
2023/04/21 06:21:46;;;;;;;10.43;8.95;;;10.30;99.90;;;;;;5035144;28;20225;-65
2023/04/21 06:24:14;;;;;;;13.73;9.33;;;10.40;99.90;;;;;;5035469;28;20576;-65
2023/04/21 06:26:41;;;;;;;17.40;9.43;;;10.50;99.90;;;;;;5035442;28;20445;-65
2023/04/21 06:29:09;;;;;;;16.63;9.13;;;10.50;99.90;;;;;;5035341;28;20524;-64
2023/04/21 06:31:36;;;;;;;16.93;9.93;;;10.60;99.90;;;;;;5035066;28;20574;-65
2023/04/21 06:34:03;;;;;;;12.23;9.50;;;10.70;99.90;;;;;;5034634;28;20528;-64
2023/04/21 06:36:30;;;;;;;12.23;8.57;;;10.70;99.90;;;;;;5035271;28;20429;-65
2023/04/21 06:38:57;;;;;;;17.63;9.63;;;10.80;99.90;;;;;;5034288;28;20544;-65
2023/04/21 06:41:23;;;;;;;12.47;9.23;;;10.80;99.90;;;;;;5034378;28;20306;-65
2023/04/21 06:43:50;;;;;;;11.73;9.37;;;10.90;99.90;;;;;;5034248;28;20503;-65
2023/04/21 06:46:18;;;;;;;14.20;9.23;;;11.00;99.90;;;;;;5034408;28;20445;-64
2023/04/21 06:48:45;;;;;;;16.70;8.93;;;11.10;99.90;;;;;;5034450;28;20448;-66
2023/04/21 06:51:12;;;;;;;13.93;9.20;;;11.20;99.90;;;;;;5034953;28;20491;-66
2023/04/21 06:53:39;;;;;;;13.67;8.77;;;11.30;99.90;;;;;;5034973;28;20857;-66
2023/04/21 06:56:06;;;;;;;11.63;8.80;;;11.40;99.90;;;;;;5034616;28;20519;-65
2023/04/21 06:58:33;;;;;;;13.30;8.97;;;11.40;99.90;;;;;;5034067;28;20536;-65
2023/04/21 07:01:00;;;;;;;20.00;9.73;;;11.50;99.90;;;;;;5034112;28;20454;-65
2023/04/21 07:03:28;;;;;;;15.30;8.80;;;11.60;99.90;;;;;;5034973;28;20848;-65
2023/04/21 07:05:55;;;;;;;15.73;8.30;;;11.80;99.90;;;;;;5034379;28;20445;-64
2023/04/21 07:08:22;;;;;;;12.93;9.47;;;11.90;99.90;;;;;;5034375;28;20455;-64
2023/04/21 07:10:49;;;;;;;10.07;8.80;;;12.10;99.90;;;;;;5034287;28;20896;-65
2023/04/21 07:13:16;;;;;;;10.57;7.87;;;12.20;99.90;;;;;;5034067;28;20512;-65
2023/04/21 07:15:43;;;;;;;16.73;8.40;;;12.30;99.90;;;;;;5034395;28;20540;-64
2023/04/21 07:18:10;;;;;;;13.13;8.60;;;12.40;99.90;;;;;;5034878;28;20449;-65
2023/04/21 07:20:38;;;;;;;10.73;7.53;;;12.50;99.90;;;;;;5034959;28;20536;-65
2023/04/21 07:23:05;;;;;;;14.40;8.17;;;12.50;99.90;;;;;;5034567;28;20469;-65
2023/04/21 07:25:32;;;;;;;13.70;8.53;;;12.60;99.90;;;;;;5034509;28;20456;-65
2023/04/21 07:27:59;;;;;;;15.83;8.27;;;12.70;99.90;;;;;;5034096;28;20455;-64
2023/04/21 07:30:26;;;;;;;10.63;8.23;;;12.80;99.90;;;;;;5034015;28;20516;-65
2023/04/21 07:32:53;;;;;;;9.33;8.10;;;13.00;99.90;;;;;;5033936;28;20467;-64
2023/04/21 07:35:19;;;;;;;14.93;8.50;;;13.10;99.90;;;;;;5034453;28;20560;-65
2023/04/21 07:37:48;;;;;;;11.83;9.37;;;13.20;99.90;;;;;;5034436;28;20539;-66
2023/04/21 07:40:15;;;;;;;13.50;8.00;;;13.20;99.90;;;;;;5033809;28;21090;-65
2023/04/21 07:42:41;;;;;;;11.93;8.40;;;13.30;99.90;;;;;;5033932;28;20465;-65
2023/04/21 07:45:09;;;;;;;12.17;7.53;;;13.40;99.90;;;;;;5033890;28;20445;-65
2023/04/21 07:47:36;;;;;;;9.77;8.07;;;13.50;99.90;;;;;;5033823;28;20470;-65
2023/04/21 07:50:03;;;;;;;8.97;8.13;;;13.60;99.90;;;;;;5034035;28;20448;-65
2023/04/21 07:52:30;;;;;;;14.83;9.07;;;13.70;99.90;;;;;;5033669;28;20512;-65
2023/04/21 07:54:58;;;;;;;14.57;8.30;;;13.80;99.90;;;;;;5033571;28;20449;-64
2023/04/21 07:57:25;;;;;;;10.90;7.93;;;13.90;99.90;;;;;;5033707;28;20456;-65
2023/04/21 07:59:52;;;;;;;11.60;8.57;;;14.00;99.90;;;;;;5033555;28;20931;-65
2023/04/21 08:02:19;;;;;;;11.20;7.10;;;14.20;99.70;;;;;;5033084;28;20453;-65
2023/04/21 08:05:10;;;;;;;10.43;8.40;;;14.40;98.90;;;;;;5033022;28;20441;-64
2023/04/21 08:07:38;;;;;;;11.23;7.93;;;14.50;97.90;;;;;;5033053;28;20440;-65
2023/04/21 08:10:09;;;;;;;11.33;7.33;;;14.60;97.00;;;;;;5033333;28;20579;-64
2023/04/21 08:12:35;;;;;;;12.07;8.53;;;14.60;96.10;;;;;;5032972;28;20595;-66
2023/04/21 08:15:06;;;;;;;12.77;7.80;;;14.60;96.20;;;;;;5033208;28;20455;-64
2023/04/21 08:17:33;;;;;;;11.87;8.93;;;14.70;96.10;;;;;;5033176;28;20532;-65
2023/04/21 08:20:00;;;;;;;11.10;8.30;;;14.90;95.60;;;;;;5033418;28;20444;-64
2023/04/21 08:22:27;;;;;;;10.73;8.07;;;15.00;94.60;;;;;;5032984;28;20467;-65
2023/04/21 08:24:53;;;;;;;10.20;7.80;;;15.10;94.10;;;;;;5032691;28;20448;-67
2023/04/21 08:27:22;;;;;;;10.13;7.60;;;15.20;93.90;;;;;;5032628;28;20449;-65
2023/04/21 08:29:49;;;;;;;10.73;7.60;;;15.40;93.10;;;;;;5032607;28;20970;-64
2023/04/21 08:32:21;;;;;;;11.63;7.60;;;15.50;91.50;;;;;;5032714;28;20491;-67
2023/04/21 08:34:47;;;;;;;13.23;8.27;;;15.50;90.20;;;;;;5033317;28;20433;-65
2023/04/21 08:37:14;;;;;;;9.17;7.70;;;15.50;89.20;;;;;;5033114;28;20499;-66
2023/04/21 08:39:41;;;;;;;10.57;7.50;;;15.60;87.70;;;;;;5032812;28;20453;-66
2023/04/21 08:42:09;;;;;;;13.53;9.20;;;15.70;86.50;;;;;;5032427;28;20476;-66
2023/04/21 08:44:37;;;;;;;11.57;7.67;;;15.80;85.40;;;;;;5032399;28;20806;-66
2023/04/21 08:47:05;;;;;;;11.23;7.90;;;15.90;84.50;;;;;;5032947;28;20455;-66
2023/04/21 08:49:33;;;;;;;11.67;7.70;;;16.00;83.00;;;;;;5032793;28;20449;-66
2023/04/21 08:52:00;;;;;;;10.23;7.80;;;16.10;82.10;;;;;;5032681;28;20481;-66
2023/04/21 08:54:27;;;;;;;9.60;7.50;;;16.20;80.90;;;;;;5032881;28;20437;-66
2023/04/21 08:56:54;;;;;;;11.77;7.67;;;16.20;79.90;;;;;;5034237;28;20448;-65
2023/04/21 08:59:20;;;;;;;11.00;8.40;;;16.30;78.10;;;;;;5036822;28;20451;-65
2023/04/21 09:02:08;;;;;;;11.80;7.40;;;16.40;76.30;;;;;;5036693;28;20491;-66
2023/04/21 09:04:37;;;;;;;10.03;7.33;;;16.40;74.80;;;;;;5036924;28;20452;-65
2023/04/21 09:07:04;;;;;;;12.10;7.60;;;16.40;74.00;;;;;;5036676;28;20456;-66
2023/04/21 09:09:31;;;;;;;10.77;7.43;;;16.50;74.30;;;;;;5036826;28;20934;-65
2023/04/21 09:11:58;;;;;;;13.50;7.47;;;16.70;74.00;;;;;;5036388;28;20484;-65
2023/04/21 09:14:31;;;;;;;7.80;7.00;;;17.00;73.10;;;;;;5036845;28;20445;-64
2023/04/21 09:17:03;;;;;;;12.97;7.40;;;17.20;71.20;;;;;;5036791;28;20429;-66
2023/04/21 09:19:34;;;;;;;11.50;7.47;;;17.40;70.20;;;;;;5036543;28;20441;-65
2023/04/21 09:22:01;;;;;;;16.40;7.30;;;17.60;68.30;;;;;;5036389;28;20552;-66
2023/04/21 09:24:28;;;;;;;11.03;7.00;;;17.70;66.90;;;;;;5036264;28;20974;-66
2023/04/21 09:26:55;;;;;;;10.67;6.80;;;17.70;65.30;;;;;;5036184;28;20461;-66
2023/04/21 09:29:22;;;;;;;12.00;6.70;;;17.80;64.50;;;;;;5036552;28;20529;-65
2023/04/21 09:31:50;;;;;;;11.53;6.70;;;17.80;63.60;;;;;;5036317;28;20480;-66
2023/04/21 09:34:19;;;;;;;12.43;7.03;;;17.90;61.60;;;;;;5035804;28;20976;-65
2023/04/21 09:36:47;;;;;;;9.53;6.00;;;17.90;60.20;;;;;;5035944;28;20452;-66
2023/04/21 09:39:14;;;;;;;17.03;6.70;;;18.00;59.50;;;;;;5036100;28;20451;-66
2023/04/21 09:41:43;;;;;;;9.93;6.53;;;18.00;58.50;;;;;;5035842;28;20465;-66
2023/04/21 09:44:09;;;;;;;9.30;5.60;;;18.10;57.60;;;;;;5035387;28;20467;-65
2023/04/21 09:46:37;;;;;;;8.10;5.10;;;18.10;57.50;;;;;;5035696;28;20445;-66
2023/04/21 09:49:04;;;;;;;11.00;6.20;;;18.30;57.10;;;;;;5035990;28;20467;-66
2023/04/21 09:51:32;;;;;;;10.40;6.20;;;18.40;56.80;;;;;;5035960;28;20488;-66
2023/04/21 09:54:03;;;;;;;11.47;5.47;;;18.60;56.60;;;;;;5035815;28;20445;-67
2023/04/21 09:56:34;;;;;;;8.60;5.90;;;18.80;55.70;;;;;;5035829;28;20928;-66
2023/04/21 09:59:06;;;;;;;9.73;4.90;;;18.90;54.10;;;;;;5035517;28;20491;-66
2023/04/21 10:01:37;;;;;;;7.90;4.97;;;19.00;53.30;;;;;;5035395;28;20468;-65
2023/04/21 10:04:04;;;;;;;6.47;5.60;;;19.00;52.90;;;;;;5035515;28;20488;-66
2023/04/21 10:06:31;;;;;;;14.57;5.97;;;19.00;52.10;;;;;;5035800;28;20765;-66
2023/04/21 10:09:01;;;;;;;10.40;5.90;;;19.00;51.90;;;;;;5034881;28;20445;-66
2023/04/21 10:11:28;;;;;;;12.50;6.07;;;19.10;51.90;;;;;;5035651;28;20489;-66
2023/04/21 10:13:55;;;;;;;7.67;5.20;;;19.10;51.90;;;;;;5035257;28;20429;-66
2023/04/21 10:16:22;;;;;;;7.10;5.50;;;19.20;51.50;;;;;;5035177;28;20528;-66
2023/04/21 10:18:49;;;;;;;9.40;5.43;;;19.30;51.00;;;;;;5035299;28;20445;-67
2023/04/21 10:21:20;;;;;;;5.77;4.87;;;19.30;50.60;;;;;;5036061;28;20610;-66
2023/04/21 10:23:48;;;;;;;6.63;5.03;;;19.40;50.80;;;;;;5035030;28;20433;-66
2023/04/21 10:26:19;;;;;;;6.60;5.03;;;19.50;50.00;;;;;;5035124;28;20816;-67
2023/04/21 10:28:58;;;;;;;7.63;4.47;;;19.60;49.80;;;;;;5035634;28;20429;-66
2023/04/21 10:31:35;;;;;;;7.20;4.83;;;19.70;49.30;;;;;;5035401;28;20469;-67
2023/04/21 10:34:22;;;;;;;9.87;5.27;;;19.80;48.80;;;;;;5035363;28;20512;-66
2023/04/21 10:37:11;;;;;;;8.10;5.50;;;20.00;48.40;;;;;;5035132;28;20437;-66
2023/04/21 10:39:53;;;;;;;8.43;5.13;;;20.10;47.70;;;;;;5035041;28;20931;-66
2023/04/21 10:42:36;;;;;;;6.30;4.37;;;20.10;47.00;;;;;;5035388;28;20461;-68
2023/04/21 10:45:12;;;;;;;11.10;6.00;;;20.10;46.50;;;;;;5032531;28;20495;-66
2023/04/21 10:47:47;;;;;;;8.17;5.20;;;20.10;46.40;;;;;;5034403;28;20452;-67
2023/04/21 10:50:22;;;;;;;7.20;4.50;;;20.10;46.40;;;;;;5034830;28;20441;-66
2023/04/21 10:52:55;;;;;;;5.60;5.00;;;20.20;45.90;;;;;;5034112;28;20484;-67
2023/04/21 10:55:25;;;;;;;8.10;4.73;;;20.20;45.00;;;;;;5034850;28;20438;-67
2023/04/21 10:57:53;;;;;;;9.37;4.90;;;20.30;45.20;;;;;;5035359;28;20430;-67
2023/04/21 11:00:22;;;;;;;8.30;4.70;;;20.40;45.20;;;;;;5034896;28;20457;-67
2023/04/21 11:03:07;;;;;;;6.27;5.13;;;20.50;45.20;;;;;;5034709;28;20462;-68
2023/04/21 11:05:37;;;;;;;7.97;5.27;;;20.60;45.10;;;;;;5035792;28;20987;-68
2023/04/21 11:08:12;;;;;;;8.30;5.40;;;20.70;44.80;;;;;;5034187;28;20960;-67
2023/04/21 11:10:52;;;;;;;7.63;4.97;;;20.60;43.90;;;;;;5034926;28;20440;-66
2023/04/21 11:13:25;;;;;;;7.20;4.93;;;20.50;43.10;;;;;;5071506;22;20844;-68
2023/04/21 11:15:57;;;;;;;4.73;4.23;;;20.50;42.00;;;;;;5054208;28;20464;-68
2023/04/21 11:18:38;;;;;;;8.33;5.07;;;20.50;41.70;;;;;;5054330;28;20467;-67
2023/04/21 11:21:10;;;;;;;8.30;5.00;;;20.50;41.70;;;;;;5054257;28;20490;-65
2023/04/21 11:23:41;;;;;;;7.13;4.63;;;20.50;41.30;;;;;;5054914;28;20452;-67
2023/04/21 11:26:07;;;;;;;7.17;4.10;;;20.50;40.60;;;;;;5055344;28;20506;-68
2023/04/21 11:28:36;;;;;;;7.23;4.40;;;20.60;40.20;;;;;;5055777;28;20444;-67
2023/04/21 11:31:03;;;;;;;8.27;5.17;;;20.60;39.90;;;;;;5055795;28;20816;-67
2023/04/21 11:33:35;;;;;;;7.90;4.10;;;20.60;39.50;;;;;;5055425;28;20494;-68
2023/04/21 11:36:04;;;;;;;6.53;5.10;;;20.60;39.10;;;;;;5056694;28;20430;-66
2023/04/21 11:38:37;;;;;;;8.90;5.13;;;20.60;39.40;;;;;;5055128;28;20564;-67
2023/04/21 11:41:04;;;;;;;4.90;4.40;;;20.60;39.40;;;;;;5054033;28;20429;-66
2023/04/21 11:43:31;;;;;;;7.20;4.80;;;20.70;39.20;;;;;;5054060;28;20464;-66
2023/04/21 11:46:13;;;;;;;5.80;5.13;;;20.80;38.40;;;;;;5053607;28;20452;-66
2023/04/21 11:48:39;;;;;;;6.03;5.30;;;21.20;38.70;;;;;;5053101;28;20913;-66
2023/04/21 11:51:13;;;;;;;7.07;5.00;;;21.70;38.10;;;;;;5052699;28;20449;-66
2023/04/21 11:53:40;;;;;;;7.27;4.90;;;22.10;36.50;;;;;;5052681;28;20488;-66
2023/04/21 11:56:09;;;;;;;10.40;4.97;;;22.30;35.60;;;;;;5054416;28;20449;-67
2023/04/21 11:58:36;;;;;;;5.83;5.30;;;22.60;35.30;;;;;;5052839;28;20475;-66
2023/04/21 12:01:07;;;;;;;6.57;5.10;;;22.80;35.10;;;;;;5052673;28;20931;-65
2023/04/21 12:03:40;;;;;;;6.37;5.10;;;23.10;35.30;;;;;;5052832;28;20528;-65
2023/04/21 12:06:07;;;;;;;5.43;4.90;;;23.40;35.00;;;;;;5053372;28;20427;-66
2023/04/21 12:08:37;;;;;;;7.03;5.30;;;23.60;34.50;;;;;;5052881;28;20461;-66
2023/04/21 12:11:04;;;;;;;6.60;5.00;;;23.70;34.20;;;;;;5053095;28;20461;-67
2023/04/21 12:13:31;;;;;;;9.97;4.90;;;23.80;33.40;;;;;;5053017;28;20521;-68
2023/04/21 12:15:58;;;;;;;6.10;4.77;;;23.70;33.10;;;;;;5052211;28;21030;-67
2023/04/21 12:18:27;;;;;;;6.40;5.13;;;23.70;33.30;;;;;;5052649;28;20479;-66
2023/04/21 12:20:55;;;;;;;6.33;5.40;;;23.70;33.70;;;;;;5053074;28;20457;-66
2023/04/21 12:23:22;;;;;;;7.53;4.70;;;23.40;33.50;;;;;;5052400;28;20461;-66
2023/04/21 12:25:53;;;;;;;6.10;5.43;;;23.00;33.80;;;;;;5052970;28;20546;-67
2023/04/21 12:28:20;;;;;;;6.47;5.30;;;22.60;34.40;;;;;;5052939;28;20411;-68
2023/04/21 12:30:46;;;;;;;6.97;5.40;;;22.30;35.50;;;;;;5052289;28;20447;-68
2023/04/21 12:33:13;;;;;;;5.63;4.97;;;22.10;36.30;;;;;;5055976;28;20486;-68
2023/04/21 12:35:40;;;;;;;6.20;5.47;;;21.90;36.80;;;;;;5056517;28;20915;-68
2023/04/21 12:38:11;;;;;;;7.57;5.53;;;21.70;36.10;;;;;;5056580;28;20456;-66
2023/04/21 12:40:38;;;;;;;6.30;5.37;;;21.60;36.10;;;;;;5057000;28;20445;-65
2023/04/21 12:43:05;;;;;;;5.77;5.10;;;21.60;36.30;;;;;;5056790;28;20464;-66
2023/04/21 12:45:31;;;;;;;11.60;5.50;;;21.60;36.50;;;;;;5059576;28;20455;-66
2023/04/21 12:48:02;;;;;;;7.07;6.37;;;21.60;36.80;;;;;;5059105;28;20935;-64